Terminal Aerodrome Forecast
Issued by NWS Billings, MT

Home | Current Version | Previous Version | Graphics & Text | Print | Product List | Glossary On
Versions: 1 2 3 4 5 6 7 8 9 10 11 12 13 14 15
000
FTUS45 KBYZ 141546 AAA
TAFMLS
TAF AMD
KMLS 141546Z 1416/1512 31015G24KT P6SM OVC090
     FM141700 30015KT 1SM -SN BR BKN015 OVC020
     FM142000 34015G25KT 4SM -SN BR OVC018
     FM150100 34015G25KT P6SM SKC
     FM150600 34010KT P6SM SKC=

USA.gov is the U.S. government's official web portal to all federal, state and local government web resources and services.